Time;durP1;ratioP1;P1;durP2;ratioP2;P2;SDS_P1;SDS_P2;PMS_P1;PMS_P2;Temp;Humidity;BMP_temperature;BMP_pressure;BME280_temperature;BME280_humidity;BME280_pressure;Samples;Min_cycle;Max_cycle;Signal;HPM_P1;HPM_P2
2022/07/11 00:02:01;;;;;;;6.80;1.90;;;;;;;;;;4990867;28;20039;-62
2022/07/11 00:04:27;;;;;;;4.87;2.00;;;;;;;;;;4991142;28;20500;-60
2022/07/11 00:06:53;;;;;;;5.90;2.73;;;;;;;;;;4991308;28;20050;-60
2022/07/11 00:09:19;;;;;;;9.20;1.97;;;;;;;;;;4991342;28;20845;-60
2022/07/11 00:11:45;;;;;;;7.53;2.33;;;;;;;;;;4991359;28;20066;-61
2022/07/11 00:14:12;;;;;;;5.50;2.17;;;;;;;;;;4990524;28;20101;-61
2022/07/11 00:16:38;;;;;;;6.10;2.00;;;;;;;;;;4991240;28;20135;-60
2022/07/11 00:19:05;;;;;;;6.60;2.30;;;;;;;;;;4990739;28;20160;-61
2022/07/11 00:21:31;;;;;;;7.60;2.13;;;;;;;;;;4990595;28;20915;-61
2022/07/11 00:23:57;;;;;;;6.83;2.73;;;;;;;;;;4989602;28;20054;-61
2022/07/11 00:26:23;;;;;;;6.97;3.00;;;;;;;;;;4990163;28;20463;-61
2022/07/11 00:28:49;;;;;;;9.73;2.90;;;;;;;;;;4989314;28;20046;-61
2022/07/11 00:31:15;;;;;;;6.20;2.97;;;;;;;;;;4989569;28;20054;-61
2022/07/11 00:33:42;;;;;;;11.27;3.33;;;;;;;;;;4982410;28;20054;-61
2022/07/11 00:36:08;;;;;;;7.07;3.03;;;;;;;;;;4990417;28;20046;-61
2022/07/11 00:38:34;;;;;;;9.90;3.47;;;;;;;;;;4989849;28;20092;-61
2022/07/11 00:41:00;;;;;;;6.07;3.33;;;;;;;;;;4990354;28;20150;-61
2022/07/11 00:43:30;;;;;;;12.10;3.33;;;;;;;;;;4991328;28;20057;-62
2022/07/11 00:45:56;;;;;;;8.13;4.00;;;;;;;;;;4991012;28;20584;-61
2022/07/11 00:48:22;;;;;;;12.03;5.03;;;;;;;;;;4991238;28;20189;-62
2022/07/11 00:50:48;;;;;;;10.87;4.70;;;;;;;;;;4991277;28;20042;-62
2022/07/11 00:53:14;;;;;;;10.33;4.30;;;;;;;;;;4991021;28;20057;-62
2022/07/11 00:55:41;;;;;;;9.83;4.47;;;;;;;;;;4990884;28;20054;-62
2022/07/11 00:58:07;;;;;;;11.77;5.30;;;;;;;;;;4990974;28;20046;-62
2022/07/11 01:00:33;;;;;;;9.27;5.17;;;;;;;;;;4990819;28;20057;-62
2022/07/11 01:03:00;;;;;;;12.77;6.07;;;;;;;;;;4990927;28;20053;-62
2022/07/11 01:05:27;;;;;;;19.93;6.40;;;;;;;;;;4990844;28;20050;-61
2022/07/11 01:07:53;;;;;;;19.30;6.40;;;;;;;;;;4990252;28;20084;-61
2022/07/11 01:10:19;;;;;;;14.60;6.03;;;;;;;;;;4990755;28;20038;-62
2022/07/11 01:12:45;;;;;;;15.93;6.20;;;;;;;;;;4990616;28;20547;-61
2022/07/11 01:15:14;;;;;;;15.77;6.90;;;;;;;;;;4985061;28;20129;-62
2022/07/11 01:17:40;;;;;;;17.40;6.80;;;;;;;;;;4957020;28;20053;-62
2022/07/11 01:20:07;;;;;;;19.27;6.60;;;;;;;;;;4990791;28;20050;-62
2022/07/11 01:22:37;;;;;;;14.47;6.13;;;;;;;;;;4990146;28;20057;-62
2022/07/11 01:25:03;;;;;;;18.50;6.50;;;;;;;;;;4990481;28;20649;-61
2022/07/11 01:27:29;;;;;;;16.83;6.43;;;;;;;;;;4990505;28;20097;-62
2022/07/11 01:29:55;;;;;;;20.83;7.83;;;;;;;;;;4990349;28;20142;-61
2022/07/11 01:32:22;;;;;;;16.50;7.27;;;;;;;;;;4990349;28;20509;-62
2022/07/11 01:34:48;;;;;;;19.03;6.70;;;;;;;;;;4989876;28;20050;-62
2022/07/11 01:37:14;;;;;;;17.53;6.40;;;;;;;;;;4990225;28;20851;-62
2022/07/11 01:39:41;;;;;;;16.33;6.63;;;;;;;;;;4990298;28;20042;-62
2022/07/11 01:42:07;;;;;;;16.33;6.60;;;;;;;;;;4990346;28;20042;-61
2022/07/11 01:44:33;;;;;;;12.87;6.03;;;;;;;;;;4989416;28;20046;-62
2022/07/11 01:46:59;;;;;;;12.23;6.47;;;;;;;;;;4990039;28;20053;-62
2022/07/11 01:49:29;;;;;;;14.80;5.80;;;;;;;;;;4990080;28;20047;-61
2022/07/11 01:51:55;;;;;;;17.87;5.97;;;;;;;;;;4989109;28;20054;-61
2022/07/11 01:54:21;;;;;;;13.20;5.77;;;;;;;;;;4989583;28;20129;-62
2022/07/11 01:56:47;;;;;;;17.27;5.47;;;;;;;;;;4989879;28;20046;-62
2022/07/11 01:59:13;;;;;;;12.40;5.77;;;;;;;;;;4990034;28;20046;-62
2022/07/11 02:01:39;;;;;;;13.37;5.37;;;;;;;;;;4989630;28;20147;-62
2022/07/11 02:04:05;;;;;;;9.73;5.03;;;;;;;;;;4989941;28;20050;-62
2022/07/11 02:06:32;;;;;;;10.27;4.70;;;;;;;;;;4989940;28;20503;-61
2022/07/11 02:08:58;;;;;;;12.93;5.40;;;;;;;;;;4989948;28;20061;-62
2022/07/11 02:11:24;;;;;;;13.37;5.17;;;;;;;;;;4990036;28;20133;-61
2022/07/11 02:13:51;;;;;;;14.73;6.03;;;;;;;;;;4989427;28;20054;-61
2022/07/11 02:16:17;;;;;;;10.43;5.10;;;;;;;;;;4989624;28;20091;-61
2022/07/11 02:18:43;;;;;;;13.53;4.73;;;;;;;;;;4989314;28;20089;-62
2022/07/11 02:21:09;;;;;;;13.63;5.40;;;;;;;;;;4989230;28;20053;-61
2022/07/11 02:23:35;;;;;;;9.40;5.10;;;;;;;;;;4977641;28;20050;-62
2022/07/11 02:26:01;;;;;;;15.80;5.57;;;;;;;;;;4970009;28;20047;-61
2022/07/11 02:28:27;;;;;;;8.43;5.00;;;;;;;;;;4969919;28;20057;-62
2022/07/11 02:30:53;;;;;;;12.43;4.77;;;;;;;;;;4969708;28;20406;-61
2022/07/11 02:33:19;;;;;;;16.60;4.90;;;;;;;;;;4970292;28;20066;-61
2022/07/11 02:35:46;;;;;;;13.30;5.50;;;;;;;;;;4969414;28;20043;-61
2022/07/11 02:38:13;;;;;;;11.53;4.47;;;;;;;;;;4969808;28;20043;-62
2022/07/11 02:40:39;;;;;;;15.60;4.93;;;;;;;;;;4969935;28;20105;-61
2022/07/11 02:43:05;;;;;;;9.37;4.80;;;;;;;;;;4969890;28;20429;-62
2022/07/11 02:45:31;;;;;;;14.47;4.90;;;;;;;;;;4969539;28;20106;-61
2022/07/11 02:47:57;;;;;;;10.90;4.83;;;;;;;;;;4969866;28;20133;-62
2022/07/11 02:50:23;;;;;;;10.70;4.87;;;;;;;;;;4969233;28;20593;-62
2022/07/11 02:52:50;;;;;;;13.70;5.87;;;;;;;;;;4969803;28;20137;-61
2022/07/11 02:55:16;;;;;;;9.93;4.77;;;;;;;;;;4952577;28;20567;-61
2022/07/11 02:57:42;;;;;;;16.07;5.07;;;;;;;;;;4969718;28;20610;-62
2022/07/11 03:00:09;;;;;;;12.27;5.83;;;;;;;;;;4969327;28;20054;-62
2022/07/11 03:02:35;;;;;;;14.87;4.73;;;;;;;;;;4969424;28;20552;-62
2022/07/11 03:05:01;;;;;;;13.47;5.27;;;;;;;;;;4972432;28;20035;-62
2022/07/11 03:07:28;;;;;;;20.00;6.27;;;;;;;;;;4973367;28;20039;-61
2022/07/11 03:09:57;;;;;;;13.10;5.23;;;;;;;;;;4973070;28;20054;-62
2022/07/11 03:12:24;;;;;;;16.00;6.50;;;;;;;;;;4973375;28;20127;-61
2022/07/11 03:14:50;;;;;;;10.73;5.37;;;;;;;;;;4973290;28;20047;-62
2022/07/11 03:17:17;;;;;;;13.53;5.77;;;;;;;;;;4973230;28;20610;-61
2022/07/11 03:19:43;;;;;;;13.17;5.10;;;;;;;;;;4973577;28;20070;-62
2022/07/11 03:22:09;;;;;;;13.13;5.43;;;;;;;;;;4976522;28;20058;-61
2022/07/11 03:24:36;;;;;;;13.10;4.33;;;;;;;;;;4992267;28;20050;-61
2022/07/11 03:27:02;;;;;;;17.17;5.23;;;;;;;;;;4992538;28;20050;-61
2022/07/11 03:29:28;;;;;;;16.07;5.33;;;;;;;;;;4992751;28;20046;-61
2022/07/11 03:31:54;;;;;;;15.27;6.30;;;;;;;;;;4992349;28;20404;-61
2022/07/11 03:34:20;;;;;;;14.43;5.47;;;;;;;;;;4992399;28;20760;-62
2022/07/11 03:36:46;;;;;;;13.87;5.67;;;;;;;;;;4992195;28;20057;-61
2022/07/11 03:39:13;;;;;;;10.50;4.80;;;;;;;;;;4992510;28;20480;-62
2022/07/11 03:41:39;;;;;;;15.00;5.63;;;;;;;;;;4992486;28;20054;-61
2022/07/11 03:44:05;;;;;;;10.03;5.13;;;;;;;;;;4992373;28;20046;-61
2022/07/11 03:46:31;;;;;;;12.73;5.50;;;;;;;;;;4992313;28;20133;-61
2022/07/11 03:48:58;;;;;;;13.03;5.00;;;;;;;;;;4991584;28;20042;-62
2022/07/11 03:51:24;;;;;;;12.13;6.07;;;;;;;;;;4991904;28;20047;-62
2022/07/11 03:53:50;;;;;;;9.70;4.93;;;;;;;;;;4992283;28;20053;-61
2022/07/11 03:56:20;;;;;;;10.97;5.17;;;;;;;;;;4991511;28;20043;-62
2022/07/11 03:58:46;;;;;;;9.03;4.57;;;;;;;;;;4991732;28;20149;-62
2022/07/11 04:01:12;;;;;;;11.03;5.10;;;;;;;;;;4991966;28;20136;-62
2022/07/11 04:03:38;;;;;;;11.03;5.57;;;;;;;;;;4991090;28;20508;-61
2022/07/11 04:06:04;;;;;;;11.43;5.60;;;;;;;;;;4988719;28;20045;-62
2022/07/11 04:08:30;;;;;;;10.07;5.57;;;;;;;;;;4988431;28;20078;-62
2022/07/11 04:10:56;;;;;;;11.93;5.30;;;;;;;;;;4988651;28;20069;-62
2022/07/11 04:13:22;;;;;;;13.40;5.87;;;;;;;;;;4988367;28;20524;-62
2022/07/11 04:15:48;;;;;;;16.23;5.60;;;;;;;;;;4988005;28;20121;-62
2022/07/11 04:18:14;;;;;;;14.20;5.90;;;;;;;;;;4988528;28;20755;-62
2022/07/11 04:20:40;;;;;;;11.40;5.90;;;;;;;;;;4989447;28;20092;-62
2022/07/11 04:23:06;;;;;;;14.40;5.53;;;;;;;;;;4979265;28;20051;-62
2022/07/11 04:25:34;;;;;;;12.30;5.47;;;;;;;;;;4970537;28;20401;-62
2022/07/11 04:28:00;;;;;;;14.03;5.80;;;;;;;;;;4970352;28;20050;-62
2022/07/11 04:30:26;;;;;;;10.60;5.90;;;;;;;;;;4971815;28;20043;-62
2022/07/11 04:32:52;;;;;;;16.63;6.10;;;;;;;;;;4971375;28;20568;-62
2022/07/11 04:35:18;;;;;;;20.17;6.60;;;;;;;;;;4969850;28;20070;-62
2022/07/11 04:37:44;;;;;;;12.80;5.70;;;;;;;;;;4971174;28;20054;-62
2022/07/11 04:40:10;;;;;;;12.87;5.10;;;;;;;;;;4970748;28;20047;-62
2022/07/11 04:42:37;;;;;;;16.87;6.60;;;;;;;;;;4970735;28;20094;-62
2022/07/11 04:45:03;;;;;;;13.10;5.70;;;;;;;;;;4970996;28;20050;-62
2022/07/11 04:47:29;;;;;;;9.30;4.33;;;;;;;;;;4970824;28;20043;-62
2022/07/11 04:49:56;;;;;;;11.57;5.07;;;;;;;;;;4970092;28;20564;-63
2022/07/11 04:52:26;;;;;;;6.73;4.33;;;;;;;;;;4970831;28;20047;-62
2022/07/11 04:54:52;;;;;;;11.40;4.07;;;;;;;;;;4953451;28;20054;-62
2022/07/11 04:57:18;;;;;;;9.97;4.70;;;;;;;;;;4970027;28;20039;-62
2022/07/11 04:59:45;;;;;;;11.50;4.17;;;;;;;;;;4970671;28;20049;-63
2022/07/11 05:02:11;;;;;;;9.70;3.27;;;;;;;;;;4953274;28;20062;-62
2022/07/11 05:04:37;;;;;;;7.93;3.53;;;;;;;;;;4970406;28;20043;-62
2022/07/11 05:07:03;;;;;;;7.07;3.33;;;;;;;;;;4970757;28;20047;-63
2022/07/11 05:09:29;;;;;;;6.17;3.23;;;;;;;;;;4970338;28;20043;-62
2022/07/11 05:11:55;;;;;;;6.43;3.53;;;;;;;;;;4969729;28;20061;-63
2022/07/11 05:14:21;;;;;;;8.77;3.10;;;;;;;;;;4970448;28;20409;-62
2022/07/11 05:16:47;;;;;;;5.20;2.73;;;;;;;;;;4969942;28;20497;-63
2022/07/11 05:19:13;;;;;;;5.43;2.73;;;;;;;;;;4970192;28;20854;-62
2022/07/11 05:21:39;;;;;;;6.90;3.20;;;;;;;;;;4970119;28;20047;-63
2022/07/11 05:24:05;;;;;;;4.93;2.40;;;;;;;;;;4988243;28;20062;-63
2022/07/11 05:26:31;;;;;;;6.57;2.63;;;;;;;;;;4988219;28;20053;-62
2022/07/11 05:28:57;;;;;;;4.30;2.27;;;;;;;;;;4989042;28;20136;-63
2022/07/11 05:31:23;;;;;;;6.93;2.67;;;;;;;;;;4989396;28;20054;-63
2022/07/11 05:33:49;;;;;;;4.70;1.90;;;;;;;;;;4989158;28;20054;-63
2022/07/11 05:36:15;;;;;;;5.77;2.70;;;;;;;;;;4988923;28;20042;-62
2022/07/11 05:38:41;;;;;;;3.50;1.97;;;;;;;;;;4989069;28;20073;-63
2022/07/11 05:41:07;;;;;;;2.60;1.57;;;;;;;;;;4989226;28;20050;-62
2022/07/11 05:43:33;;;;;;;3.03;1.50;;;;;;;;;;4989231;28;20504;-62
2022/07/11 05:45:59;;;;;;;2.00;1.27;;;;;;;;;;4989057;28;20042;-62
2022/07/11 05:48:25;;;;;;;3.63;1.37;;;;;;;;;;4988916;28;20050;-62
2022/07/11 05:50:51;;;;;;;3.73;1.50;;;;;;;;;;4988463;28;20074;-63
2022/07/11 05:53:17;;;;;;;3.87;1.50;;;;;;;;;;4989242;28;20393;-62
2022/07/11 05:55:43;;;;;;;4.17;1.30;;;;;;;;;;4988641;28;20057;-62
2022/07/11 05:58:09;;;;;;;2.87;1.40;;;;;;;;;;4988870;28;20070;-62
2022/07/11 06:00:35;;;;;;;3.03;1.07;;;;;;;;;;4988380;28;20436;-63
2022/07/11 06:03:01;;;;;;;4.27;2.13;;;;;;;;;;4989030;28;20100;-62
2022/07/11 06:05:27;;;;;;;3.37;1.13;;;;;;;;;;4988766;28;20057;-62
2022/07/11 06:10:39;;;;;;;2.80;0.93;;;;;;;;;;4988822;28;20481;-62
2022/07/11 06:13:05;;;;;;;2.30;0.90;;;;;;;;;;4988332;28;20086;-62
2022/07/11 06:15:31;;;;;;;2.57;1.10;;;;;;;;;;4988858;28;20579;-62
2022/07/11 06:17:57;;;;;;;2.30;0.80;;;;;;;;;;4988690;28;20461;-62
2022/07/11 06:20:23;;;;;;;1.43;0.80;;;;;;;;;;4988308;28;20463;-63
2022/07/11 06:22:49;;;;;;;2.37;1.10;;;;;;;;;;4988199;28;20117;-62
2022/07/11 06:25:15;;;;;;;3.13;0.90;;;;;;;;;;4988927;28;20042;-62
2022/07/11 06:27:41;;;;;;;4.23;1.00;;;;;;;;;;4987979;28;20046;-63
2022/07/11 06:30:07;;;;;;;3.10;0.83;;;;;;;;;;4988292;28;20050;-63
2022/07/11 06:32:33;;;;;;;1.27;0.60;;;;;;;;;;4988016;28;20050;-63
2022/07/11 06:35:00;;;;;;;2.20;0.60;;;;;;;;;;4987915;28;20493;-62
2022/07/11 06:37:26;;;;;;;2.53;0.80;;;;;;;;;;4988359;28;20054;-62
2022/07/11 06:39:52;;;;;;;1.47;0.50;;;;;;;;;;4987947;28;20112;-61
2022/07/11 06:42:18;;;;;;;3.47;0.60;;;;;;;;;;4988152;28;20046;-62
2022/07/11 06:44:44;;;;;;;2.97;0.67;;;;;;;;;;4988068;28;20198;-62
2022/07/11 06:47:10;;;;;;;1.80;0.57;;;;;;;;;;4988155;28;20042;-62
2022/07/11 06:49:36;;;;;;;1.13;0.40;;;;;;;;;;4987714;28;20102;-62
2022/07/11 06:52:02;;;;;;;1.40;0.43;;;;;;;;;;4988309;28;20412;-62
2022/07/11 06:54:28;;;;;;;1.67;0.90;;;;;;;;;;4987982;28;20049;-62
2022/07/11 06:56:54;;;;;;;0.90;0.40;;;;;;;;;;4988301;28;20053;-63
2022/07/11 06:59:20;;;;;;;1.67;0.67;;;;;;;;;;4988304;28;20506;-62
2022/07/11 07:01:46;;;;;;;1.10;0.37;;;;;;;;;;4987479;28;20051;-62
2022/07/11 07:04:12;;;;;;;1.63;0.43;;;;;;;;;;4988137;28;20173;-62
2022/07/11 07:06:39;;;;;;;1.17;0.53;;;;;;;;;;4988271;28;20080;-62
2022/07/11 07:09:05;;;;;;;0.67;0.30;;;;;;;;;;4987727;28;20500;-62
2022/07/11 07:11:31;;;;;;;1.23;0.23;;;;;;;;;;4988384;28;20050;-61
2022/07/11 07:13:57;;;;;;;0.80;0.20;;;;;;;;;;4987669;28;20050;-62
2022/07/11 07:16:23;;;;;;;0.40;0.20;;;;;;;;;;4987852;28;20051;-62
2022/07/11 07:18:50;;;;;;;1.03;0.40;;;;;;;;;;4970557;28;20140;-61
2022/07/11 07:21:16;;;;;;;1.30;0.20;;;;;;;;;;4987830;28;20065;-62
2022/07/11 07:23:42;;;;;;;0.40;0.20;;;;;;;;;;4987586;28;20055;-59
2022/07/11 07:26:08;;;;;;;0.37;0.10;;;;;;;;;;4988102;28;20043;-60
2022/07/11 07:28:34;;;;;;;2.00;0.30;;;;;;;;;;4987687;28;20358;-62
2022/07/11 07:31:01;;;;;;;1.03;0.40;;;;;;;;;;4987082;28;20051;-62
2022/07/11 07:33:27;;;;;;;0.40;0.20;;;;;;;;;;4987908;28;20098;-61
2022/07/11 07:35:53;;;;;;;1.00;0.33;;;;;;;;;;4987846;28;20406;-62
2022/07/11 07:38:19;;;;;;;1.50;0.37;;;;;;;;;;4987705;28;20049;-62
2022/07/11 07:40:45;;;;;;;1.10;0.40;;;;;;;;;;4987281;28;20047;-61
2022/07/11 07:43:11;;;;;;;1.20;0.23;;;;;;;;;;4988048;28;20110;-61
2022/07/11 07:45:37;;;;;;;0.77;0.30;;;;;;;;;;4988205;28;20146;-61
2022/07/11 07:48:03;;;;;;;0.57;0.27;;;;;;;;;;4970068;28;20400;-61
2022/07/11 07:50:29;;;;;;;2.07;0.40;;;;;;;;;;4989475;28;20535;-62
2022/07/11 07:52:55;;;;;;;2.00;0.37;;;;;;;;;;4991121;28;20125;-61
2022/07/11 07:55:21;;;;;;;1.23;0.37;;;;;;;;;;4990573;28;20469;-61
2022/07/11 07:57:47;;;;;;;0.90;0.33;;;;;;;;;;4990950;28;20046;-62
2022/07/11 08:03:03;;;;;;;4.63;0.73;;;;;;;;;;4990680;28;20050;-59
2022/07/11 08:05:29;;;;;;;1.40;0.30;;;;;;;;;;4991206;28;20046;-59
2022/07/11 08:07:55;;;;;;;1.60;0.40;;;;;;;;;;4990679;28;20068;-60
2022/07/11 08:10:21;;;;;;;0.80;0.30;;;;;;;;;;4990745;28;20056;-60
2022/07/11 08:12:48;;;;;;;1.57;0.40;;;;;;;;;;4989907;28;20046;-61
2022/07/11 08:15:14;;;;;;;1.57;0.57;;;;;;;;;;4990661;28;20052;-60
2022/07/11 08:17:41;;;;;;;1.73;0.40;;;;;;;;;;4990715;28;20042;-61
2022/07/11 08:20:08;;;;;;;1.20;0.50;;;;;;;;;;4990395;28;20129;-60
2022/07/11 08:22:34;;;;;;;0.80;0.40;;;;;;;;;;4972540;28;20144;-60
2022/07/11 08:25:00;;;;;;;2.57;0.50;;;;;;;;;;4990586;28;20133;-61
2022/07/11 08:27:26;;;;;;;1.83;0.60;;;;;;;;;;4990544;28;20137;-61
2022/07/11 08:29:52;;;;;;;1.10;0.30;;;;;;;;;;4990233;28;20166;-61
2022/07/11 08:32:18;;;;;;;2.27;0.50;;;;;;;;;;4990324;28;20048;-60
2022/07/11 08:34:47;;;;;;;0.50;0.20;;;;;;;;;;4990562;28;20049;-61
2022/07/11 08:37:13;;;;;;;0.93;0.30;;;;;;;;;;4989990;28;20416;-60
2022/07/11 08:39:39;;;;;;;0.50;0.20;;;;;;;;;;4989946;28;20050;-60
2022/07/11 08:42:05;;;;;;;1.90;0.30;;;;;;;;;;4990124;28;20058;-60
2022/07/11 08:44:31;;;;;;;0.87;0.30;;;;;;;;;;4989995;28;20050;-60
2022/07/11 08:46:58;;;;;;;1.37;0.37;;;;;;;;;;4990058;28;20070;-60
2022/07/11 08:49:24;;;;;;;0.47;0.20;;;;;;;;;;4989744;28;20487;-60
2022/07/11 08:51:51;;;;;;;0.57;0.23;;;;;;;;;;4989900;28;20058;-60
2022/07/11 08:54:17;;;;;;;1.07;0.30;;;;;;;;;;4990140;28;20419;-60
2022/07/11 08:56:49;;;;;;;0.33;0.20;;;;;;;;;;4989658;28;20069;-60
2022/07/11 08:59:19;;;;;;;0.53;0.20;;;;;;;;;;4989523;28;20071;-60
2022/07/11 09:01:46;;;;;;;0.50;0.27;;;;;;;;;;4988784;28;20126;-61
2022/07/11 09:04:13;;;;;;;0.67;0.20;;;;;;;;;;4989956;28;20046;-60
2022/07/11 09:06:39;;;;;;;1.00;0.23;;;;;;;;;;4989832;28;20050;-60
2022/07/11 09:09:06;;;;;;;2.20;0.50;;;;;;;;;;4988968;28;20050;-60
2022/07/11 09:11:51;;;;;;;0.57;0.20;;;;;;;;;;4990181;28;20050;-60
2022/07/11 09:14:25;;;;;;;0.53;0.30;;;;;;;;;;4989688;28;20046;-60
2022/07/11 09:16:54;;;;;;;0.30;0.20;;;;;;;;;;4989595;28;20045;-59
2022/07/11 09:19:34;;;;;;;1.17;0.20;;;;;;;;;;4989212;28;20131;-60
2022/07/11 09:27:55;;;;;;;0.63;0.30;;;;;;;;;;4989554;28;20137;-60
2022/07/11 09:30:24;;;;;;;0.50;0.40;;;;;;;;;;4989686;28;20150;-60
2022/07/11 09:32:57;;;;;;;0.43;0.30;;;;;;;;;;4988960;28;20077;-60
2022/07/11 09:35:25;;;;;;;1.37;0.37;;;;;;;;;;4989621;28;20112;-60
2022/07/11 09:37:51;;;;;;;0.73;0.40;;;;;;;;;;4988994;28;20050;-60
2022/07/11 09:40:17;;;;;;;0.47;0.23;;;;;;;;;;4988815;28;20665;-60
2022/07/11 09:43:02;;;;;;;0.73;0.37;;;;;;;;;;4989169;28;20046;-60
2022/07/11 09:45:30;;;;;;;0.43;0.30;;;;;;;;;;4988997;28;20129;-60
2022/07/11 09:48:00;;;;;;;0.20;0.20;;;;;;;;;;4971796;28;20396;-60
2022/07/11 09:50:27;;;;;;;0.57;0.30;;;;;;;;;;4989082;28;20053;-60
2022/07/11 09:53:02;;;;;;;0.77;0.20;;;;;;;;;;4988610;28;20096;-60
2022/07/11 09:55:29;;;;;;;0.30;0.20;;;;;;;;;;4988400;28;20042;-60
2022/07/11 09:57:55;;;;;;;0.90;0.43;;;;;;;;;;4988545;28;20112;-60
2022/07/11 10:00:21;;;;;;;0.47;0.30;;;;;;;;;;4988824;28;20050;-61
2022/07/11 10:02:49;;;;;;;1.10;0.40;;;;;;;;;;4988903;28;20053;-61
2022/07/11 10:05:15;;;;;;;1.80;0.30;;;;;;;;;;4988866;28;20385;-61
2022/07/11 10:07:41;;;;;;;1.07;0.50;;;;;;;;;;4988143;28;20050;-61
2022/07/11 10:10:09;;;;;;;1.10;0.27;;;;;;;;;;4988594;28;20081;-61
2022/07/11 10:12:36;;;;;;;0.33;0.30;;;;;;;;;;4988176;28;20058;-61
2022/07/11 10:15:04;;;;;;;1.03;0.30;;;;;;;;;;4988541;28;20053;-61
2022/07/11 10:17:48;;;;;;;0.33;0.20;;;;;;;;;;4988253;28;20050;-63
2022/07/11 10:20:33;;;;;;;2.10;0.30;;;;;;;;;;4988953;28;20129;-61
2022/07/11 10:23:06;;;;;;;0.53;0.30;;;;;;;;;;4988430;28;20061;-61
2022/07/11 10:25:45;;;;;;;0.63;0.20;;;;;;;;;;4988541;28;20043;-61
2022/07/11 10:28:30;;;;;;;0.70;0.20;;;;;;;;;;4988516;28;20050;-61
2022/07/11 10:30:59;;;;;;;0.68;0.28;;;;;;;;;;4988306;28;20081;-61
2022/07/11 10:33:26;;;;;;;0.20;0.20;;;;;;;;;;4987779;28;20054;-61
2022/07/11 10:35:56;;;;;;;0.10;0.10;;;;;;;;;;4988200;28;20050;-61
2022/07/11 10:38:25;;;;;;;0.32;0.20;;;;;;;;;;4988281;28;20171;-61
2022/07/11 10:40:51;;;;;;;0.57;0.20;;;;;;;;;;4988523;28;20085;-61
2022/07/11 10:43:23;;;;;;;0.70;0.20;;;;;;;;;;4988128;28;20054;-61
2022/07/11 10:45:50;;;;;;;2.47;0.40;;;;;;;;;;4988544;28;20535;-61
2022/07/11 10:48:16;;;;;;;0.90;0.30;;;;;;;;;;4988602;28;20054;-61
2022/07/11 10:50:44;;;;;;;0.25;0.22;;;;;;;;;;4988025;28;20125;-61
2022/07/11 10:53:10;;;;;;;0.35;0.20;;;;;;;;;;4988012;28;20195;-62
2022/07/11 10:55:36;;;;;;;0.10;0.10;;;;;;;;;;4988349;28;20046;-61
2022/07/11 10:58:06;;;;;;;0.30;0.13;;;;;;;;;;4987532;28;20145;-61
2022/07/11 11:00:33;;;;;;;0.22;0.20;;;;;;;;;;4988167;28;20042;-61
2022/07/11 11:02:59;;;;;;;1.08;0.20;;;;;;;;;;4988034;28;20108;-61
2022/07/11 11:05:43;;;;;;;0.68;0.30;;;;;;;;;;4988214;28;20547;-61
2022/07/11 11:08:28;;;;;;;1.17;0.20;;;;;;;;;;4987808;28;20504;-61
2022/07/11 11:10:54;;;;;;;0.73;0.30;;;;;;;;;;4988164;28;20054;-61
2022/07/11 11:13:20;;;;;;;1.35;0.28;;;;;;;;;;4988047;28;20046;-61
2022/07/11 11:15:48;;;;;;;0.32;0.17;;;;;;;;;;4987956;28;20100;-61
2022/07/11 11:18:23;;;;;;;0.57;0.20;;;;;;;;;;4988469;28;20053;-61
2022/07/11 11:21:09;;;;;;;0.47;0.20;;;;;;;;;;4987508;28;20393;-61
2022/07/11 11:23:39;;;;;;;0.85;0.20;;;;;;;;;;4987866;28;20054;-61
2022/07/11 11:26:18;;;;;;;0.70;0.30;;;;;;;;;;4990894;28;20042;-61
2022/07/11 11:28:59;;;;;;;0.52;0.25;;;;;;;;;;4991393;28;20042;-62
2022/07/11 11:31:29;;;;;;;0.35;0.20;;;;;;;;;;4991082;28;20397;-61
2022/07/11 11:33:56;;;;;;;0.95;0.28;;;;;;;;;;4991527;28;20173;-61
2022/07/11 11:36:23;;;;;;;1.08;0.30;;;;;;;;;;4991403;28;20101;-61
2022/07/11 11:38:50;;;;;;;0.68;0.20;;;;;;;;;;4991320;28;20126;-61
2022/07/11 11:41:26;;;;;;;0.32;0.30;;;;;;;;;;4990852;28;20532;-62
2022/07/11 11:43:52;;;;;;;1.27;0.45;;;;;;;;;;4991502;28;20073;-61
2022/07/11 11:46:18;;;;;;;0.20;0.10;;;;;;;;;;4991175;28;20566;-61
2022/07/11 11:48:45;;;;;;;0.80;0.20;;;;;;;;;;4990987;28;20057;-61
2022/07/11 11:51:14;;;;;;;0.85;0.20;;;;;;;;;;4991161;28;20046;-61
2022/07/11 11:53:40;;;;;;;0.15;0.13;;;;;;;;;;4990675;28;20530;-61
2022/07/11 11:56:13;;;;;;;0.65;0.28;;;;;;;;;;4990942;28;20403;-61
2022/07/11 11:58:39;;;;;;;0.98;0.30;;;;;;;;;;4990968;28;20046;-61
2022/07/11 12:01:05;;;;;;;0.65;0.20;;;;;;;;;;4991146;28;20089;-61
2022/07/11 12:03:51;;;;;;;0.93;0.25;;;;;;;;;;4990608;28;20081;-61
2022/07/11 12:06:17;;;;;;;0.63;0.30;;;;;;;;;;4991179;28;20062;-61
2022/07/11 12:08:44;;;;;;;0.82;0.40;;;;;;;;;;4990808;28;20046;-61
2022/07/11 12:11:14;;;;;;;0.60;0.22;;;;;;;;;;4991074;28;20050;-61
2022/07/11 12:13:41;;;;;;;1.92;0.30;;;;;;;;;;4990384;28;20049;-61
2022/07/11 12:18:59;;;;;;;0.98;0.47;;;;;;;;;;4990542;28;20053;-60
2022/07/11 12:21:25;;;;;;;1.00;0.43;;;;;;;;;;4990549;28;20043;-61
2022/07/11 12:23:51;;;;;;;1.25;0.30;;;;;;;;;;4990249;28;20062;-61
2022/07/11 12:26:17;;;;;;;0.30;0.20;;;;;;;;;;4990087;28;20077;-61
2022/07/11 12:29:01;;;;;;;0.10;0.10;;;;;;;;;;4990041;28;20082;-61
2022/07/11 12:31:40;;;;;;;2.15;0.30;;;;;;;;;;4990637;28;20192;-60
2022/07/11 12:34:06;;;;;;;2.38;0.70;;;;;;;;;;4990565;28;20096;-62
2022/07/11 12:36:33;;;;;;;0.20;0.20;;;;;;;;;;4989861;28;20046;-61
2022/07/11 12:38:59;;;;;;;0.77;0.20;;;;;;;;;;4990291;28;20045;-61
2022/07/11 12:41:25;;;;;;;0.93;0.40;;;;;;;;;;4990120;28;20042;-61
2022/07/11 12:46:37;;;;;;;1.65;0.20;;;;;;;;;;4990213;28;20058;-61
2022/07/11 12:49:04;;;;;;;0.32;0.10;;;;;;;;;;4990128;28;20081;-62
2022/07/11 12:51:34;;;;;;;0.52;0.30;;;;;;;;;;4989886;28;20046;-61
2022/07/11 12:54:05;;;;;;;0.75;0.13;;;;;;;;;;4990379;28;20046;-61
2022/07/11 12:56:32;;;;;;;1.77;0.28;;;;;;;;;;4989920;28;20385;-61
2022/07/11 12:58:59;;;;;;;0.38;0.20;;;;;;;;;;4989423;28;20134;-61
2022/07/11 13:01:25;;;;;;;0.30;0.20;;;;;;;;;;4990051;28;20043;-61
2022/07/11 13:03:51;;;;;;;0.20;0.10;;;;;;;;;;4989638;28;20046;-61
2022/07/11 13:08:41;;;;;;;0.35;0.20;;;;;;;;;;4989772;28;20088;-61
2022/07/11 13:09:03;;;;;;;0.98;0.40;;;;;;;;;;4989594;28;20051;-61
2022/07/11 13:11:31;;;;;;;1.40;0.20;;;;;;;;;;4989172;28;20053;-61
2022/07/11 13:13:57;;;;;;;1.95;0.32;;;;;;;;;;4989482;28;20096;-62
2022/07/11 13:16:23;;;;;;;1.98;0.20;;;;;;;;;;4989885;28;20149;-61
2022/07/11 13:18:49;;;;;;;0.40;0.20;;;;;;;;;;4989729;28;20682;-61
2022/07/11 13:21:16;;;;;;;0.52;0.20;;;;;;;;;;4989333;28;20050;-61
2022/07/11 13:23:42;;;;;;;0.73;0.32;;;;;;;;;;4989198;28;20064;-61
2022/07/11 13:26:09;;;;;;;1.02;0.30;;;;;;;;;;4989046;28;20515;-61
2022/07/11 13:28:35;;;;;;;1.75;0.30;;;;;;;;;;4989624;28;20075;-61
2022/07/11 13:31:04;;;;;;;1.17;0.20;;;;;;;;;;4989605;28;20563;-61
2022/07/11 13:33:31;;;;;;;1.25;0.43;;;;;;;;;;4989336;28;20046;-61
2022/07/11 13:35:57;;;;;;;0.85;0.30;;;;;;;;;;4989626;28;20053;-61
2022/07/11 13:38:23;;;;;;;1.40;0.20;;;;;;;;;;4989855;28;20179;-61
2022/07/11 13:40:49;;;;;;;1.08;0.47;;;;;;;;;;4989389;28;20215;-60
2022/07/11 13:43:15;;;;;;;0.55;0.30;;;;;;;;;;4989308;28;20125;-61
2022/07/11 13:45:44;;;;;;;0.20;0.20;;;;;;;;;;4988563;28;20046;-61
2022/07/11 13:48:10;;;;;;;0.82;0.30;;;;;;;;;;4988590;28;20046;-61
2022/07/11 13:50:36;;;;;;;0.50;0.30;;;;;;;;;;4989130;28;20046;-61
2022/07/11 13:53:02;;;;;;;0.65;0.30;;;;;;;;;;4989123;28;20038;-62
2022/07/11 13:55:29;;;;;;;1.38;0.22;;;;;;;;;;4989629;28;20077;-61
2022/07/11 13:57:56;;;;;;;0.65;0.30;;;;;;;;;;4989138;28;20511;-61
2022/07/11 14:00:22;;;;;;;0.40;0.30;;;;;;;;;;4989041;28;20046;-61
2022/07/11 14:02:49;;;;;;;0.80;0.50;;;;;;;;;;4988946;28;20050;-61
2022/07/11 14:05:15;;;;;;;0.75;0.20;;;;;;;;;;4989014;28;20110;-61
2022/07/11 14:07:41;;;;;;;0.20;0.20;;;;;;;;;;4988332;28;20129;-61
2022/07/11 14:10:08;;;;;;;0.80;0.20;;;;;;;;;;4987578;28;20089;-61
2022/07/11 14:12:34;;;;;;;0.57;0.28;;;;;;;;;;4987448;28;20416;-61
2022/07/11 14:15:01;;;;;;;1.23;0.30;;;;;;;;;;4988229;28;20035;-61
2022/07/11 14:17:27;;;;;;;0.68;0.30;;;;;;;;;;4987847;28;20126;-61
2022/07/11 14:19:54;;;;;;;1.20;0.40;;;;;;;;;;4987508;28;20298;-61
2022/07/11 14:22:20;;;;;;;1.70;0.40;;;;;;;;;;4986066;28;20568;-60
2022/07/11 14:24:46;;;;;;;1.00;0.40;;;;;;;;;;4986805;28;20050;-61
2022/07/11 14:27:13;;;;;;;0.45;0.35;;;;;;;;;;4987781;28;20575;-61
2022/07/11 14:29:40;;;;;;;0.40;0.20;;;;;;;;;;4987185;28;20472;-61
2022/07/11 14:32:06;;;;;;;0.52;0.20;;;;;;;;;;4988496;28;20121;-61
2022/07/11 14:34:32;;;;;;;0.52;0.20;;;;;;;;;;4987194;28;20042;-61
2022/07/11 14:36:58;;;;;;;0.70;0.25;;;;;;;;;;4987712;28;20086;-61
2022/07/11 14:39:24;;;;;;;0.65;0.30;;;;;;;;;;4986917;28;20043;-61
2022/07/11 14:41:51;;;;;;;1.48;0.32;;;;;;;;;;4987275;28;20046;-61
2022/07/11 14:44:17;;;;;;;0.60;0.20;;;;;;;;;;4987071;28;20436;-61
2022/07/11 14:46:43;;;;;;;0.55;0.30;;;;;;;;;;4987182;28;20507;-61
2022/07/11 14:49:10;;;;;;;0.70;0.30;;;;;;;;;;4987136;28;20049;-61
2022/07/11 14:51:37;;;;;;;0.30;0.13;;;;;;;;;;4987208;28;20566;-61
2022/07/11 14:54:03;;;;;;;0.52;0.30;;;;;;;;;;4987073;28;20038;-60
2022/07/11 14:56:29;;;;;;;1.85;0.30;;;;;;;;;;4987142;28;20584;-62
2022/07/11 14:58:55;;;;;;;0.98;0.32;;;;;;;;;;4988166;28;20073;-61